sensor_id;sensor_type;location;lat;lon;timestamp;temperature;humidity
67722;SHT31;58309;45.292;11.820;2022-09-12T00:00:48;17.46;94.21
67722;SHT31;58309;45.292;11.820;2022-09-12T00:03:14;17.43;94.25
67722;SHT31;58309;45.292;11.820;2022-09-12T00:05:41;17.37;94.42
67722;SHT31;58309;45.292;11.820;2022-09-12T00:08:08;17.37;94.78
67722;SHT31;58309;45.292;11.820;2022-09-12T00:10:37;17.36;95.06
67722;SHT31;58309;45.292;11.820;2022-09-12T00:13:02;17.39;95.34
67722;SHT31;58309;45.292;11.820;2022-09-12T00:15:28;17.36;95.39
67722;SHT31;58309;45.292;11.820;2022-09-12T00:17:53;17.34;95.61
67722;SHT31;58309;45.292;11.820;2022-09-12T00:20:19;17.34;95.77
67722;SHT31;58309;45.292;11.820;2022-09-12T00:22:44;17.37;96.04
67722;SHT31;58309;45.292;11.820;2022-09-12T00:25:10;17.34;96.16
67722;SHT31;58309;45.292;11.820;2022-09-12T00:27:36;17.43;96.26
67722;SHT31;58309;45.292;11.820;2022-09-12T00:30:02;17.44;96.34
67722;SHT31;58309;45.292;11.820;2022-09-12T00:32:28;17.53;96.39
67722;SHT31;58309;45.292;11.820;2022-09-12T00:34:54;17.60;96.12
67722;SHT31;58309;45.292;11.820;2022-09-12T00:37:19;17.66;95.78
67722;SHT31;58309;45.292;11.820;2022-09-12T00:39:44;17.62;95.61
67722;SHT31;58309;45.292;11.820;2022-09-12T00:42:11;17.57;95.84
67722;SHT31;58309;45.292;11.820;2022-09-12T00:47:05;17.56;96.48
67722;SHT31;58309;45.292;11.820;2022-09-12T00:50:03;17.54;96.29
67722;SHT31;58309;45.292;11.820;2022-09-12T00:52:52;17.53;96.52
67722;SHT31;58309;45.292;11.820;2022-09-12T00:55:42;17.59;96.33
67722;SHT31;58309;45.292;11.820;2022-09-12T00:58:25;17.59;96.24
67722;SHT31;58309;45.292;11.820;2022-09-12T01:00:52;17.62;96.24
67722;SHT31;58309;45.292;11.820;2022-09-12T01:03:19;17.62;96.32
67722;SHT31;58309;45.292;11.820;2022-09-12T01:08:20;17.56;96.40
67722;SHT31;58309;45.292;11.820;2022-09-12T01:10:47;17.59;96.42
67722;SHT31;58309;45.292;11.820;2022-09-12T01:13:13;17.62;96.30
67722;SHT31;58309;45.292;11.820;2022-09-12T01:15:39;17.62;96.18
67722;SHT31;58309;45.292;11.820;2022-09-12T01:29:25;17.42;96.73
67722;SHT31;58309;45.292;11.820;2022-09-12T01:35:05;17.49;96.65
67722;SHT31;58309;45.292;11.820;2022-09-12T01:43:10;17.60;95.73
67722;SHT31;58309;45.292;11.820;2022-09-12T01:45:56;17.47;95.55
67722;SHT31;58309;45.292;11.820;2022-09-12T01:48:28;17.40;95.72
67722;SHT31;58309;45.292;11.820;2022-09-12T01:51:05;17.29;95.80
67722;SHT31;58309;45.292;11.820;2022-09-12T01:53:37;17.22;96.09
67722;SHT31;58309;45.292;11.820;2022-09-12T01:56:26;17.13;95.92
67722;SHT31;58309;45.292;11.820;2022-09-12T01:59:05;17.06;96.17
67722;SHT31;58309;45.292;11.820;2022-09-12T02:01:37;17.01;96.24
67722;SHT31;58309;45.292;11.820;2022-09-12T02:04:20;16.96;96.73
67722;SHT31;58309;45.292;11.820;2022-09-12T02:06:51;16.93;96.36
67722;SHT31;58309;45.292;11.820;2022-09-12T02:09:22;16.88;96.36
67722;SHT31;58309;45.292;11.820;2022-09-12T02:11:48;16.84;96.52
67722;SHT31;58309;45.292;11.820;2022-09-12T02:14:25;16.84;96.83
67722;SHT31;58309;45.292;11.820;2022-09-12T02:16:55;16.88;96.82
67722;SHT31;58309;45.292;11.820;2022-09-12T02:19:27;16.85;96.51
67722;SHT31;58309;45.292;11.820;2022-09-12T02:22:03;16.81;96.70
67722;SHT31;58309;45.292;11.820;2022-09-12T02:24:34;16.82;96.78
67722;SHT31;58309;45.292;11.820;2022-09-12T02:27:08;16.92;96.51
67722;SHT31;58309;45.292;11.820;2022-09-12T02:29:35;16.86;96.22
67722;SHT31;58309;45.292;11.820;2022-09-12T02:32:11;16.85;96.19
67722;SHT31;58309;45.292;11.820;2022-09-12T02:34:50;16.76;96.12
67722;SHT31;58309;45.292;11.820;2022-09-12T02:37:55;16.72;96.29
67722;SHT31;58309;45.292;11.820;2022-09-12T02:40:17;16.68;96.13
67722;SHT31;58309;45.292;11.820;2022-09-12T02:42:43;16.65;96.28
67722;SHT31;58309;45.292;11.820;2022-09-12T02:45:09;16.64;96.35
67722;SHT31;58309;45.292;11.820;2022-09-12T02:47:41;16.67;96.42
67722;SHT31;58309;45.292;11.820;2022-09-12T02:50:08;16.62;96.22
67722;SHT31;58309;45.292;11.820;2022-09-12T02:52:34;16.61;96.23
67722;SHT31;58309;45.292;11.820;2022-09-12T02:55:02;16.55;96.32
67722;SHT31;58309;45.292;11.820;2022-09-12T02:57:29;16.57;96.31
67722;SHT31;58309;45.292;11.820;2022-09-12T02:59:57;16.54;96.32
67722;SHT31;58309;45.292;11.820;2022-09-12T03:02:53;16.51;96.30
67722;SHT31;58309;45.292;11.820;2022-09-12T03:05:33;16.53;96.35
67722;SHT31;58309;45.292;11.820;2022-09-12T03:19:22;16.45;96.39
67722;SHT31;58309;45.292;11.820;2022-09-12T03:21:52;16.47;96.37
67722;SHT31;58309;45.292;11.820;2022-09-12T03:24:31;16.41;96.31
67722;SHT31;58309;45.292;11.820;2022-09-12T03:29:39;16.40;96.51
67722;SHT31;58309;45.292;11.820;2022-09-12T03:32:05;16.41;96.30
67722;SHT31;58309;45.292;11.820;2022-09-12T03:34:31;16.38;96.38
67722;SHT31;58309;45.292;11.820;2022-09-12T03:36:57;16.35;96.37
67722;SHT31;58309;45.292;11.820;2022-09-12T03:39:24;16.40;96.47
67722;SHT31;58309;45.292;11.820;2022-09-12T03:41:51;16.43;96.42
67722;SHT31;58309;45.292;11.820;2022-09-12T03:44:17;16.51;95.80
67722;SHT31;58309;45.292;11.820;2022-09-12T03:46:43;16.53;95.46
67722;SHT31;58309;45.292;11.820;2022-09-12T03:49:09;16.50;95.58
67722;SHT31;58309;45.292;11.820;2022-09-12T03:51:35;16.45;95.44
67722;SHT31;58309;45.292;11.820;2022-09-12T03:54:01;16.47;95.48
67722;SHT31;58309;45.292;11.820;2022-09-12T03:56:27;16.43;95.36
67722;SHT31;58309;45.292;11.820;2022-09-12T03:58:53;16.44;95.51
67722;SHT31;58309;45.292;11.820;2022-09-12T04:01:19;16.43;95.38
67722;SHT31;58309;45.292;11.820;2022-09-12T04:03:49;16.37;95.40
67722;SHT31;58309;45.292;11.820;2022-09-12T04:06:18;16.33;95.66
67722;SHT31;58309;45.292;11.820;2022-09-12T04:08:47;16.30;95.61
67722;SHT31;58309;45.292;11.820;2022-09-12T04:11:15;16.30;95.67
67722;SHT31;58309;45.292;11.820;2022-09-12T04:13:42;16.31;95.76
67722;SHT31;58309;45.292;11.820;2022-09-12T04:16:09;16.31;95.66
67722;SHT31;58309;45.292;11.820;2022-09-12T04:18:35;16.28;95.64
67722;SHT31;58309;45.292;11.820;2022-09-12T04:21:10;16.27;95.66
67722;SHT31;58309;45.292;11.820;2022-09-12T04:23:36;16.30;95.56
67722;SHT31;58309;45.292;11.820;2022-09-12T04:26:03;16.28;95.74
67722;SHT31;58309;45.292;11.820;2022-09-12T04:28:31;16.30;95.57
67722;SHT31;58309;45.292;11.820;2022-09-12T04:31:05;16.28;95.52
67722;SHT31;58309;45.292;11.820;2022-09-12T04:33:32;16.25;95.44
67722;SHT31;58309;45.292;11.820;2022-09-12T04:36:05;16.23;95.46
67722;SHT31;58309;45.292;11.820;2022-09-12T04:38:33;16.20;95.47
67722;SHT31;58309;45.292;11.820;2022-09-12T04:40:59;16.17;95.27
67722;SHT31;58309;45.292;11.820;2022-09-12T04:43:25;16.14;95.40
67722;SHT31;58309;45.292;11.820;2022-09-12T04:45:51;16.12;95.47
67722;SHT31;58309;45.292;11.820;2022-09-12T04:48:16;16.10;95.42
67722;SHT31;58309;45.292;11.820;2022-09-12T04:50:42;16.09;95.53
67722;SHT31;58309;45.292;11.820;2022-09-12T04:53:08;16.13;95.29
67722;SHT31;58309;45.292;11.820;2022-09-12T04:55:34;16.12;95.30
67722;SHT31;58309;45.292;11.820;2022-09-12T04:58:00;16.10;95.16
67722;SHT31;58309;45.292;11.820;2022-09-12T05:00:26;16.18;94.64
67722;SHT31;58309;45.292;11.820;2022-09-12T05:02:51;16.16;94.69
67722;SHT31;58309;45.292;11.820;2022-09-12T05:05:17;16.18;94.86
67722;SHT31;58309;45.292;11.820;2022-09-12T05:07:43;16.20;94.73
67722;SHT31;58309;45.292;11.820;2022-09-12T05:10:09;16.20;94.68
67722;SHT31;58309;45.292;11.820;2022-09-12T05:12:34;16.21;94.73
67722;SHT31;58309;45.292;11.820;2022-09-12T05:15:00;16.23;94.51
67722;SHT31;58309;45.292;11.820;2022-09-12T05:17:28;16.31;94.21
67722;SHT31;58309;45.292;11.820;2022-09-12T05:19:54;16.37;94.07
67722;SHT31;58309;45.292;11.820;2022-09-12T05:22:20;16.41;93.54
67722;SHT31;58309;45.292;11.820;2022-09-12T05:24:45;16.41;93.87
67722;SHT31;58309;45.292;11.820;2022-09-12T05:27:13;16.45;93.97
67722;SHT31;58309;45.292;11.820;2022-09-12T05:29:38;16.54;93.36
67722;SHT31;58309;45.292;11.820;2022-09-12T05:32:04;16.57;93.56
67722;SHT31;58309;45.292;11.820;2022-09-12T05:34:29;16.61;93.50
67722;SHT31;58309;45.292;11.820;2022-09-12T05:36:55;16.69;92.74
67722;SHT31;58309;45.292;11.820;2022-09-12T05:39:20;16.74;92.86
67722;SHT31;58309;45.292;11.820;2022-09-12T05:41:46;16.88;92.26
67722;SHT31;58309;45.292;11.820;2022-09-12T05:44:12;16.95;92.26
67722;SHT31;58309;45.292;11.820;2022-09-12T05:46:42;17.09;91.74
67722;SHT31;58309;45.292;11.820;2022-09-12T05:49:11;17.18;91.40
67722;SHT31;58309;45.292;11.820;2022-09-12T05:51:42;17.25;91.55
67722;SHT31;58309;45.292;11.820;2022-09-12T05:54:10;17.36;90.73
67722;SHT31;58309;45.292;11.820;2022-09-12T05:56:38;17.44;90.47
67722;SHT31;58309;45.292;11.820;2022-09-12T05:59:06;17.51;90.13
67722;SHT31;58309;45.292;11.820;2022-09-12T06:01:34;17.66;88.94
67722;SHT31;58309;45.292;11.820;2022-09-12T06:04:03;17.75;89.39
67722;SHT31;58309;45.292;11.820;2022-09-12T06:06:31;17.88;87.59
67722;SHT31;58309;45.292;11.820;2022-09-12T06:09:01;18.06;86.74
67722;SHT31;58309;45.292;11.820;2022-09-12T06:11:31;18.18;86.78
67722;SHT31;58309;45.292;11.820;2022-09-12T06:13:58;18.29;86.48
67722;SHT31;58309;45.292;11.820;2022-09-12T06:16:27;18.46;85.00
67722;SHT31;58309;45.292;11.820;2022-09-12T06:18:57;18.57;85.21
67722;SHT31;58309;45.292;11.820;2022-09-12T06:21:23;18.62;84.62
67722;SHT31;58309;45.292;11.820;2022-09-12T06:23:52;18.63;84.57
67722;SHT31;58309;45.292;11.820;2022-09-12T06:26:18;18.70;83.31
67722;SHT31;58309;45.292;11.820;2022-09-12T06:28:48;18.76;83.33
67722;SHT31;58309;45.292;11.820;2022-09-12T06:31:23;18.87;82.45
67722;SHT31;58309;45.292;11.820;2022-09-12T06:33:50;18.90;81.25
67722;SHT31;58309;45.292;11.820;2022-09-12T06:36:20;18.96;81.42
67722;SHT31;58309;45.292;11.820;2022-09-12T06:38:46;19.02;81.97
67722;SHT31;58309;45.292;11.820;2022-09-12T06:41:13;19.07;81.61
67722;SHT31;58309;45.292;11.820;2022-09-12T06:43:40;19.14;81.30
67722;SHT31;58309;45.292;11.820;2022-09-12T06:46:06;19.34;80.95
67722;SHT31;58309;45.292;11.820;2022-09-12T06:48:32;19.43;80.86
67722;SHT31;58309;45.292;11.820;2022-09-12T06:51:06;19.52;80.07
67722;SHT31;58309;45.292;11.820;2022-09-12T06:53:33;19.61;79.78
67722;SHT31;58309;45.292;11.820;2022-09-12T06:56:00;19.71;80.53
67722;SHT31;58309;45.292;11.820;2022-09-12T06:58:27;19.78;79.36
67722;SHT31;58309;45.292;11.820;2022-09-12T07:01:19;19.82;78.32
67722;SHT31;58309;45.292;11.820;2022-09-12T07:03:47;19.86;78.54
67722;SHT31;58309;45.292;11.820;2022-09-12T07:06:16;19.97;77.76
67722;SHT31;58309;45.292;11.820;2022-09-12T07:08:42;20.00;77.61
67722;SHT31;58309;45.292;11.820;2022-09-12T07:13:41;20.12;77.63
67722;SHT31;58309;45.292;11.820;2022-09-12T07:16:07;20.20;77.39
67722;SHT31;58309;45.292;11.820;2022-09-12T07:18:35;20.27;77.60
67722;SHT31;58309;45.292;11.820;2022-09-12T07:21:03;20.32;77.26
67722;SHT31;58309;45.292;11.820;2022-09-12T07:23:29;20.51;77.20
67722;SHT31;58309;45.292;11.820;2022-09-12T07:25:57;20.53;76.17
67722;SHT31;58309;45.292;11.820;2022-09-12T07:28:23;20.67;77.34
67722;SHT31;58309;45.292;11.820;2022-09-12T07:30:50;20.70;76.91
67722;SHT31;58309;45.292;11.820;2022-09-12T07:33:27;20.85;76.46
67722;SHT31;58309;45.292;11.820;2022-09-12T07:35:53;20.87;77.57
67722;SHT31;58309;45.292;11.820;2022-09-12T07:38:22;20.94;76.58
67722;SHT31;58309;45.292;11.820;2022-09-12T07:40:47;21.01;76.38
67722;SHT31;58309;45.292;11.820;2022-09-12T07:43:13;21.08;76.27
67722;SHT31;58309;45.292;11.820;2022-09-12T07:45:39;21.08;76.38
67722;SHT31;58309;45.292;11.820;2022-09-12T07:48:07;21.18;75.89
67722;SHT31;58309;45.292;11.820;2022-09-12T07:50:33;21.25;74.89
67722;SHT31;58309;45.292;11.820;2022-09-12T07:52:59;21.38;74.88
67722;SHT31;58309;45.292;11.820;2022-09-12T07:55:25;21.39;74.55
67722;SHT31;58309;45.292;11.820;2022-09-12T07:57:51;21.49;74.62
67722;SHT31;58309;45.292;11.820;2022-09-12T08:00:17;21.55;74.55
67722;SHT31;58309;45.292;11.820;2022-09-12T08:02:42;21.69;73.99
67722;SHT31;58309;45.292;11.820;2022-09-12T08:05:08;21.72;73.77
67722;SHT31;58309;45.292;11.820;2022-09-12T08:07:34;21.84;73.68
67722;SHT31;58309;45.292;11.820;2022-09-12T08:10:00;21.90;72.76
67722;SHT31;58309;45.292;11.820;2022-09-12T08:12:29;21.96;73.63
67722;SHT31;58309;45.292;11.820;2022-09-12T08:14:57;22.07;72.20
67722;SHT31;58309;45.292;11.820;2022-09-12T08:17:22;22.15;71.90
67722;SHT31;58309;45.292;11.820;2022-09-12T08:19:48;22.24;71.88
67722;SHT31;58309;45.292;11.820;2022-09-12T08:22:13;22.33;71.31
67722;SHT31;58309;45.292;11.820;2022-09-12T08:24:39;22.47;70.19
67722;SHT31;58309;45.292;11.820;2022-09-12T08:27:06;22.62;71.00
67722;SHT31;58309;45.292;11.820;2022-09-12T08:29:31;22.73;70.12
67722;SHT31;58309;45.292;11.820;2022-09-12T08:31:57;22.89;69.56
67722;SHT31;58309;45.292;11.820;2022-09-12T08:34:23;23.00;69.60
67722;SHT31;58309;45.292;11.820;2022-09-12T08:36:49;23.22;69.01
67722;SHT31;58309;45.292;11.820;2022-09-12T08:39:15;24.06;66.52
67722;SHT31;58309;45.292;11.820;2022-09-12T08:41:46;25.11;63.17
67722;SHT31;58309;45.292;11.820;2022-09-12T08:47:18;27.21;56.85
67722;SHT31;58309;45.292;11.820;2022-09-12T08:57:50;28.98;51.73
67722;SHT31;58309;45.292;11.820;2022-09-12T09:00:17;29.29;52.17
67722;SHT31;58309;45.292;11.820;2022-09-12T09:03:03;29.58;50.21
67722;SHT31;58309;45.292;11.820;2022-09-12T09:05:44;30.00;49.67
67722;SHT31;58309;45.292;11.820;2022-09-12T09:08:51;30.12;47.37
67722;SHT31;58309;45.292;11.820;2022-09-12T09:14:22;31.03;45.75
67722;SHT31;58309;45.292;11.820;2022-09-12T09:17:18;31.39;46.69
67722;SHT31;58309;45.292;11.820;2022-09-12T09:19:55;31.49;45.83
67722;SHT31;58309;45.292;11.820;2022-09-12T09:22:37;30.74;46.91
67722;SHT31;58309;45.292;11.820;2022-09-12T09:25:15;31.30;47.18
67722;SHT31;58309;45.292;11.820;2022-09-12T09:27:57;31.75;45.00
67722;SHT31;58309;45.292;11.820;2022-09-12T09:30:25;31.27;46.01
67722;SHT31;58309;45.292;11.820;2022-09-12T09:32:54;32.09;44.67
67722;SHT31;58309;45.292;11.820;2022-09-12T09:43:25;32.63;44.56
67722;SHT31;58309;45.292;11.820;2022-09-12T09:45:55;32.94;44.38
67722;SHT31;58309;45.292;11.820;2022-09-12T09:48:26;32.43;43.34
67722;SHT31;58309;45.292;11.820;2022-09-12T09:50:53;32.80;41.94
67722;SHT31;58309;45.292;11.820;2022-09-12T09:56:33;32.88;41.25
67722;SHT31;58309;45.292;11.820;2022-09-12T10:01:42;33.29;40.52
67722;SHT31;58309;45.292;11.820;2022-09-12T10:04:19;33.15;39.30
67722;SHT31;58309;45.292;11.820;2022-09-12T10:06:46;33.60;38.43
67722;SHT31;58309;45.292;11.820;2022-09-12T10:11:38;32.88;40.83
67722;SHT31;58309;45.292;11.820;2022-09-12T10:14:04;33.21;39.61
67722;SHT31;58309;45.292;11.820;2022-09-12T10:16:48;33.36;38.62
67722;SHT31;58309;45.292;11.820;2022-09-12T10:19:22;33.52;40.19
67722;SHT31;58309;45.292;11.820;2022-09-12T10:21:52;33.72;38.95
67722;SHT31;58309;45.292;11.820;2022-09-12T10:24:29;33.23;41.05
67722;SHT31;58309;45.292;11.820;2022-09-12T10:32:35;34.43;36.47
67722;SHT31;58309;45.292;11.820;2022-09-12T10:35:15;34.50;36.47
67722;SHT31;58309;45.292;11.820;2022-09-12T10:38:11;34.23;36.42
67722;SHT31;58309;45.292;11.820;2022-09-12T10:40:38;34.43;36.02
67722;SHT31;58309;45.292;11.820;2022-09-12T10:43:23;35.06;36.54
67722;SHT31;58309;45.292;11.820;2022-09-12T10:45:50;34.98;35.47
67722;SHT31;58309;45.292;11.820;2022-09-12T10:48:32;34.50;35.45
67722;SHT31;58309;45.292;11.820;2022-09-12T10:51:00;34.77;37.53
67722;SHT31;58309;45.292;11.820;2022-09-12T10:53:46;35.00;34.47
67722;SHT31;58309;45.292;11.820;2022-09-12T10:56:15;34.85;35.01
67722;SHT31;58309;45.292;11.820;2022-09-12T11:01:48;35.08;34.22
67722;SHT31;58309;45.292;11.820;2022-09-12T11:04:25;35.64;35.20
67722;SHT31;58309;45.292;11.820;2022-09-12T11:13:20;35.51;34.30
67722;SHT31;58309;45.292;11.820;2022-09-12T11:30:30;35.50;33.58
67722;SHT31;58309;45.292;11.820;2022-09-12T11:35:49;33.79;36.67
67722;SHT31;58309;45.292;11.820;2022-09-12T11:41:26;33.90;36.03
67722;SHT31;58309;45.292;11.820;2022-09-12T11:46:37;35.02;32.28
67722;SHT31;58309;45.292;11.820;2022-09-12T11:49:10;34.96;34.19
67722;SHT31;58309;45.292;11.820;2022-09-12T11:52:00;35.76;32.51
67722;SHT31;58309;45.292;11.820;2022-09-12T11:54:49;36.11;31.06
67722;SHT31;58309;45.292;11.820;2022-09-12T11:57:28;35.63;31.44
67722;SHT31;58309;45.292;11.820;2022-09-12T12:05:22;36.20;32.48
67722;SHT31;58309;45.292;11.820;2022-09-12T12:07:57;36.46;31.77
67722;SHT31;58309;45.292;11.820;2022-09-12T12:10:37;36.66;31.71
67722;SHT31;58309;45.292;11.820;2022-09-12T12:13:07;36.23;32.63
67722;SHT31;58309;45.292;11.820;2022-09-12T12:15:35;35.09;33.13
67722;SHT31;58309;45.292;11.820;2022-09-12T12:18:13;33.93;34.08
67722;SHT31;58309;45.292;11.820;2022-09-12T12:20:40;33.90;34.98
67722;SHT31;58309;45.292;11.820;2022-09-12T12:23:06;33.48;35.60
67722;SHT31;58309;45.292;11.820;2022-09-12T12:25:53;32.80;37.33
67722;SHT31;58309;45.292;11.820;2022-09-12T12:31:04;30.97;40.37
67722;SHT31;58309;45.292;11.820;2022-09-12T12:38:32;29.34;41.70
67722;SHT31;58309;45.292;11.820;2022-09-12T12:46:19;28.86;42.45
67722;SHT31;58309;45.292;11.820;2022-09-12T12:48:52;28.63;43.92
67722;SHT31;58309;45.292;11.820;2022-09-12T12:51:30;28.58;45.46
67722;SHT31;58309;45.292;11.820;2022-09-12T12:53:59;28.56;44.84
67722;SHT31;58309;45.292;11.820;2022-09-12T12:56:40;28.21;43.66
67722;SHT31;58309;45.292;11.820;2022-09-12T12:59:20;28.44;43.84
67722;SHT31;58309;45.292;11.820;2022-09-12T13:01:52;28.51;47.36
67722;SHT31;58309;45.292;11.820;2022-09-12T13:04:27;28.45;46.15
67722;SHT31;58309;45.292;11.820;2022-09-12T13:07:01;28.62;44.54
67722;SHT31;58309;45.292;11.820;2022-09-12T13:12:07;28.93;44.51
67722;SHT31;58309;45.292;11.820;2022-09-12T13:14:57;29.00;43.91
67722;SHT31;58309;45.292;11.820;2022-09-12T13:20:13;29.07;45.40
67722;SHT31;58309;45.292;11.820;2022-09-12T13:22:46;29.04;42.46
67722;SHT31;58309;45.292;11.820;2022-09-12T13:25:25;28.92;44.34
67722;SHT31;58309;45.292;11.820;2022-09-12T13:30:37;28.51;43.76
67722;SHT31;58309;45.292;11.820;2022-09-12T13:33:20;28.59;45.17
67722;SHT31;58309;45.292;11.820;2022-09-12T13:43:42;29.02;43.92
67722;SHT31;58309;45.292;11.820;2022-09-12T13:46:13;29.10;42.55
67722;SHT31;58309;45.292;11.820;2022-09-12T13:48:41;29.23;43.55
67722;SHT31;58309;45.292;11.820;2022-09-12T13:51:32;29.31;43.71
67722;SHT31;58309;45.292;11.820;2022-09-12T13:54:02;29.22;43.35
67722;SHT31;58309;45.292;11.820;2022-09-12T13:56:29;28.98;44.44
67722;SHT31;58309;45.292;11.820;2022-09-12T13:58:57;28.78;44.99
67722;SHT31;58309;45.292;11.820;2022-09-12T14:01:34;28.65;46.43
67722;SHT31;58309;45.292;11.820;2022-09-12T14:06:59;28.24;46.26
67722;SHT31;58309;45.292;11.820;2022-09-12T14:09:39;28.13;45.04
67722;SHT31;58309;45.292;11.820;2022-09-12T14:12:28;28.29;44.74
67722;SHT31;58309;45.292;11.820;2022-09-12T14:14:55;28.71;44.97
67722;SHT31;58309;45.292;11.820;2022-09-12T14:17:32;28.99;43.24
67722;SHT31;58309;45.292;11.820;2022-09-12T14:20:02;29.14;43.85
67722;SHT31;58309;45.292;11.820;2022-09-12T14:22:28;29.37;43.14
67722;SHT31;58309;45.292;11.820;2022-09-12T14:24:55;29.43;42.72
67722;SHT31;58309;45.292;11.820;2022-09-12T14:27:37;29.31;42.77
67722;SHT31;58309;45.292;11.820;2022-09-12T14:35:36;29.14;42.08
67722;SHT31;58309;45.292;11.820;2022-09-12T14:38:07;29.03;43.73
67722;SHT31;58309;45.292;11.820;2022-09-12T14:40:42;28.82;44.36
67722;SHT31;58309;45.292;11.820;2022-09-12T14:43:27;28.73;44.14
67722;SHT31;58309;45.292;11.820;2022-09-12T14:45:56;28.63;44.45
67722;SHT31;58309;45.292;11.820;2022-09-12T14:48:24;28.58;45.73
67722;SHT31;58309;45.292;11.820;2022-09-12T14:50:51;28.56;46.02
67722;SHT31;58309;45.292;11.820;2022-09-12T14:55:51;28.48;44.90
67722;SHT31;58309;45.292;11.820;2022-09-12T15:01:02;28.49;45.06
67722;SHT31;58309;45.292;11.820;2022-09-12T15:06:27;28.55;44.53
67722;SHT31;58309;45.292;11.820;2022-09-12T15:08:55;28.61;44.94
67722;SHT31;58309;45.292;11.820;2022-09-12T15:11:21;28.58;44.09
67722;SHT31;58309;45.292;11.820;2022-09-12T15:13:47;28.47;43.87
67722;SHT31;58309;45.292;11.820;2022-09-12T15:16:13;28.32;45.03
67722;SHT31;58309;45.292;11.820;2022-09-12T15:18:38;28.18;45.66
67722;SHT31;58309;45.292;11.820;2022-09-12T15:21:06;28.13;44.49
67722;SHT31;58309;45.292;11.820;2022-09-12T15:23:52;28.07;45.45
67722;SHT31;58309;45.292;11.820;2022-09-12T15:26:20;28.13;45.75
67722;SHT31;58309;45.292;11.820;2022-09-12T15:28:47;28.20;45.45
67722;SHT31;58309;45.292;11.820;2022-09-12T15:31:30;28.22;45.67
67722;SHT31;58309;45.292;11.820;2022-09-12T15:33:58;28.22;44.77
67722;SHT31;58309;45.292;11.820;2022-09-12T15:36:24;28.20;48.98
67722;SHT31;58309;45.292;11.820;2022-09-12T15:38:51;27.98;52.30
67722;SHT31;58309;45.292;11.820;2022-09-12T15:41:36;27.90;53.17
67722;SHT31;58309;45.292;11.820;2022-09-12T15:44:06;27.89;53.04
67722;SHT31;58309;45.292;11.820;2022-09-12T15:46:32;27.89;54.90
67722;SHT31;58309;45.292;11.820;2022-09-12T15:48:58;27.96;53.41
67722;SHT31;58309;45.292;11.820;2022-09-12T15:51:24;27.93;53.65
67722;SHT31;58309;45.292;11.820;2022-09-12T15:53:50;27.84;53.66
67722;SHT31;58309;45.292;11.820;2022-09-12T15:56:17;27.66;54.78
67722;SHT31;58309;45.292;11.820;2022-09-12T15:58:43;27.50;54.51
67722;SHT31;58309;45.292;11.820;2022-09-12T16:01:11;27.42;54.78
67722;SHT31;58309;45.292;11.820;2022-09-12T16:03:37;27.31;55.75
67722;SHT31;58309;45.292;11.820;2022-09-12T16:06:03;27.13;55.49
67722;SHT31;58309;45.292;11.820;2022-09-12T16:08:30;27.05;54.84
67722;SHT31;58309;45.292;11.820;2022-09-12T16:10:59;27.01;56.34
67722;SHT31;58309;45.292;11.820;2022-09-12T16:13:26;26.95;56.01
67722;SHT31;58309;45.292;11.820;2022-09-12T16:15:55;26.92;55.90
67722;SHT31;58309;45.292;11.820;2022-09-12T16:18:21;26.81;56.79
67722;SHT31;58309;45.292;11.820;2022-09-12T16:20:50;26.78;56.73
67722;SHT31;58309;45.292;11.820;2022-09-12T16:23:16;26.74;57.30
67722;SHT31;58309;45.292;11.820;2022-09-12T16:25:42;26.71;56.87
67722;SHT31;58309;45.292;11.820;2022-09-12T16:28:07;26.60;56.50
67722;SHT31;58309;45.292;11.820;2022-09-12T16:30:33;26.55;56.90
67722;SHT31;58309;45.292;11.820;2022-09-12T16:32:59;26.43;56.75
67722;SHT31;58309;45.292;11.820;2022-09-12T16:35:25;26.37;57.28
67722;SHT31;58309;45.292;11.820;2022-09-12T16:37:51;26.27;57.51
67722;SHT31;58309;45.292;11.820;2022-09-12T16:40:17;26.20;57.86
67722;SHT31;58309;45.292;11.820;2022-09-12T16:42:46;26.10;58.29
67722;SHT31;58309;45.292;11.820;2022-09-12T16:45:12;26.04;58.07
67722;SHT31;58309;45.292;11.820;2022-09-12T16:47:38;25.96;58.81
67722;SHT31;58309;45.292;11.820;2022-09-12T16:50:04;25.86;59.18
67722;SHT31;58309;45.292;11.820;2022-09-12T16:52:30;25.75;59.46
67722;SHT31;58309;45.292;11.820;2022-09-12T16:54:55;25.63;59.60
67722;SHT31;58309;45.292;11.820;2022-09-12T16:57:22;25.54;60.40
67722;SHT31;58309;45.292;11.820;2022-09-12T16:59:47;25.48;60.22
67722;SHT31;58309;45.292;11.820;2022-09-12T17:02:13;25.41;60.19
67722;SHT31;58309;45.292;11.820;2022-09-12T17:04:39;25.32;60.52
67722;SHT31;58309;45.292;11.820;2022-09-12T17:07:05;25.20;60.78
67722;SHT31;58309;45.292;11.820;2022-09-12T17:09:31;25.08;61.37
67722;SHT31;58309;45.292;11.820;2022-09-12T17:11:57;24.94;61.76
67722;SHT31;58309;45.292;11.820;2022-09-12T17:14:23;24.80;61.55
67722;SHT31;58309;45.292;11.820;2022-09-12T17:16:49;24.74;61.19
67722;SHT31;58309;45.292;11.820;2022-09-12T17:19:20;24.66;61.25
67722;SHT31;58309;45.292;11.820;2022-09-12T17:21:46;24.59;61.16
67722;SHT31;58309;45.292;11.820;2022-09-12T17:24:18;24.55;61.58
67722;SHT31;58309;45.292;11.820;2022-09-12T17:26:44;24.46;61.62
67722;SHT31;58309;45.292;11.820;2022-09-12T17:29:13;24.36;60.99
67722;SHT31;58309;45.292;11.820;2022-09-12T17:31:40;24.30;61.12
67722;SHT31;58309;45.292;11.820;2022-09-12T17:34:06;24.23;61.32
67722;SHT31;58309;45.292;11.820;2022-09-12T17:36:32;24.15;61.46
67722;SHT31;58309;45.292;11.820;2022-09-12T17:39:01;24.05;61.40
67722;SHT31;58309;45.292;11.820;2022-09-12T17:41:28;24.00;61.98
67722;SHT31;58309;45.292;11.820;2022-09-12T17:43:57;23.94;62.14
67722;SHT31;58309;45.292;11.820;2022-09-12T17:46:28;23.84;62.06
67722;SHT31;58309;45.292;11.820;2022-09-12T17:48:55;23.81;62.12
67722;SHT31;58309;45.292;11.820;2022-09-12T17:51:23;23.74;62.45
67722;SHT31;58309;45.292;11.820;2022-09-12T17:54:01;23.67;63.07
67722;SHT31;58309;45.292;11.820;2022-09-12T17:56:28;23.51;63.35
67722;SHT31;58309;45.292;11.820;2022-09-12T17:58:55;23.46;63.49
67722;SHT31;58309;45.292;11.820;2022-09-12T18:01:21;23.37;63.56
67722;SHT31;58309;45.292;11.820;2022-09-12T18:04:06;23.33;64.20
67722;SHT31;58309;45.292;11.820;2022-09-12T18:06:32;23.23;64.33
67722;SHT31;58309;45.292;11.820;2022-09-12T18:09:05;23.16;64.74
67722;SHT31;58309;45.292;11.820;2022-09-12T18:11:31;23.07;65.34
67722;SHT31;58309;45.292;11.820;2022-09-12T18:13:57;23.02;65.00